sensor_id;sensor_type;location;lat;lon;timestamp;temperature;humidity
1049;DHT22;513;51.444;7.196;2023-01-15T00:00:51;6.30;99.90
1049;DHT22;513;51.444;7.196;2023-01-15T00:03:19;6.20;99.90
1049;DHT22;513;51.444;7.196;2023-01-15T00:05:45;6.30;99.90
1049;DHT22;513;51.444;7.196;2023-01-15T00:08:12;6.20;99.90
1049;DHT22;513;51.444;7.196;2023-01-15T00:10:38;6.20;99.90
1049;DHT22;513;51.444;7.196;2023-01-15T00:13:05;6.30;99.90
1049;DHT22;513;51.444;7.196;2023-01-15T00:15:31;6.30;99.90
1049;DHT22;513;51.444;7.196;2023-01-15T00:17:58;6.30;99.90
1049;DHT22;513;51.444;7.196;2023-01-15T00:20:26;6.30;99.90
1049;DHT22;513;51.444;7.196;2023-01-15T00:22:52;6.20;99.90
1049;DHT22;513;51.444;7.196;2023-01-15T00:25:19;6.20;99.90
1049;DHT22;513;51.444;7.196;2023-01-15T00:28:03;6.20;99.90
1049;DHT22;513;51.444;7.196;2023-01-15T00:30:30;6.10;99.90
1049;DHT22;513;51.444;7.196;2023-01-15T00:32:57;6.20;99.90
1049;DHT22;513;51.444;7.196;2023-01-15T00:35:23;6.20;99.90
1049;DHT22;513;51.444;7.196;2023-01-15T00:37:52;6.20;99.90
1049;DHT22;513;51.444;7.196;2023-01-15T00:40:20;6.20;99.90
1049;DHT22;513;51.444;7.196;2023-01-15T00:42:46;6.20;99.90
1049;DHT22;513;51.444;7.196;2023-01-15T00:45:13;6.00;99.90
1049;DHT22;513;51.444;7.196;2023-01-15T00:47:40;6.10;99.90
1049;DHT22;513;51.444;7.196;2023-01-15T00:50:08;6.10;99.90
1049;DHT22;513;51.444;7.196;2023-01-15T00:52:37;6.10;99.90
1049;DHT22;513;51.444;7.196;2023-01-15T00:55:06;6.10;99.90
1049;DHT22;513;51.444;7.196;2023-01-15T00:57:32;6.00;99.90
1049;DHT22;513;51.444;7.196;2023-01-15T00:59:59;6.00;99.90
1049;DHT22;513;51.444;7.196;2023-01-15T01:02:26;6.00;99.90
1049;DHT22;513;51.444;7.196;2023-01-15T01:04:52;6.00;99.90
1049;DHT22;513;51.444;7.196;2023-01-15T01:07:19;5.80;99.90
1049;DHT22;513;51.444;7.196;2023-01-15T01:09:45;5.80;99.90
1049;DHT22;513;51.444;7.196;2023-01-15T01:12:13;5.80;99.90
1049;DHT22;513;51.444;7.196;2023-01-15T01:14:40;5.80;99.90
1049;DHT22;513;51.444;7.196;2023-01-15T01:17:08;5.90;99.90
1049;DHT22;513;51.444;7.196;2023-01-15T01:19:35;5.80;99.90
1049;DHT22;513;51.444;7.196;2023-01-15T01:22:01;5.70;99.90
1049;DHT22;513;51.444;7.196;2023-01-15T01:24:28;6.10;99.90
1049;DHT22;513;51.444;7.196;2023-01-15T01:26:54;5.70;99.90
1049;DHT22;513;51.444;7.196;2023-01-15T01:29:22;5.80;99.90
1049;DHT22;513;51.444;7.196;2023-01-15T01:31:49;5.90;99.90
1049;DHT22;513;51.444;7.196;2023-01-15T01:34:16;5.90;99.90
1049;DHT22;513;51.444;7.196;2023-01-15T01:36:43;6.00;99.90
1049;DHT22;513;51.444;7.196;2023-01-15T01:39:11;5.90;99.90
1049;DHT22;513;51.444;7.196;2023-01-15T01:41:39;5.90;99.90
1049;DHT22;513;51.444;7.196;2023-01-15T01:44:06;5.90;99.90
1049;DHT22;513;51.444;7.196;2023-01-15T01:46:35;5.90;99.90
1049;DHT22;513;51.444;7.196;2023-01-15T01:49:02;5.90;99.90
1049;DHT22;513;51.444;7.196;2023-01-15T01:51:31;5.90;99.90
1049;DHT22;513;51.444;7.196;2023-01-15T01:54:00;6.00;99.90
1049;DHT22;513;51.444;7.196;2023-01-15T01:56:26;5.90;99.90
1049;DHT22;513;51.444;7.196;2023-01-15T01:58:53;6.00;99.90
1049;DHT22;513;51.444;7.196;2023-01-15T02:01:20;6.00;99.90
1049;DHT22;513;51.444;7.196;2023-01-15T02:03:49;6.00;99.90
1049;DHT22;513;51.444;7.196;2023-01-15T02:06:16;6.00;99.90
1049;DHT22;513;51.444;7.196;2023-01-15T02:08:43;5.90;99.90
1049;DHT22;513;51.444;7.196;2023-01-15T02:11:11;5.90;99.90
1049;DHT22;513;51.444;7.196;2023-01-15T02:13:40;5.90;99.90
1049;DHT22;513;51.444;7.196;2023-01-15T02:16:09;5.90;99.90
1049;DHT22;513;51.444;7.196;2023-01-15T02:18:39;5.90;99.90
1049;DHT22;513;51.444;7.196;2023-01-15T02:21:11;6.00;99.90
1049;DHT22;513;51.444;7.196;2023-01-15T02:26:26;5.90;99.90
1049;DHT22;513;51.444;7.196;2023-01-15T02:28:57;6.00;99.90
1049;DHT22;513;51.444;7.196;2023-01-15T02:31:24;5.90;99.90
1049;DHT22;513;51.444;7.196;2023-01-15T02:33:54;5.90;99.90
1049;DHT22;513;51.444;7.196;2023-01-15T02:36:23;5.90;99.90
1049;DHT22;513;51.444;7.196;2023-01-15T02:38:52;5.90;99.90
1049;DHT22;513;51.444;7.196;2023-01-15T02:41:21;5.90;99.90
1049;DHT22;513;51.444;7.196;2023-01-15T02:43:51;5.90;99.90
1049;DHT22;513;51.444;7.196;2023-01-15T02:46:21;5.90;99.90
1049;DHT22;513;51.444;7.196;2023-01-15T02:48:49;6.00;99.90
1049;DHT22;513;51.444;7.196;2023-01-15T02:51:18;6.00;99.90
1049;DHT22;513;51.444;7.196;2023-01-15T02:53:45;5.90;99.90
1049;DHT22;513;51.444;7.196;2023-01-15T02:56:14;5.90;99.90
1049;DHT22;513;51.444;7.196;2023-01-15T02:58:42;5.80;99.90
1049;DHT22;513;51.444;7.196;2023-01-15T03:01:11;5.80;99.90
1049;DHT22;513;51.444;7.196;2023-01-15T03:03:41;5.80;99.90
1049;DHT22;513;51.444;7.196;2023-01-15T03:06:10;5.80;99.90
1049;DHT22;513;51.444;7.196;2023-01-15T03:08:38;5.90;99.90
1049;DHT22;513;51.444;7.196;2023-01-15T03:11:05;6.00;99.90
1049;DHT22;513;51.444;7.196;2023-01-15T03:13:35;6.00;99.90
1049;DHT22;513;51.444;7.196;2023-01-15T03:16:08;6.00;99.90
1049;DHT22;513;51.444;7.196;2023-01-15T03:18:57;6.00;99.90
1049;DHT22;513;51.444;7.196;2023-01-15T03:21:26;6.00;99.90
1049;DHT22;513;51.444;7.196;2023-01-15T03:23:55;6.00;99.90
1049;DHT22;513;51.444;7.196;2023-01-15T03:26:26;5.90;99.90
1049;DHT22;513;51.444;7.196;2023-01-15T03:28:53;5.90;99.90
1049;DHT22;513;51.444;7.196;2023-01-15T03:31:20;5.90;99.90
1049;DHT22;513;51.444;7.196;2023-01-15T03:33:47;5.90;99.90
1049;DHT22;513;51.444;7.196;2023-01-15T03:36:15;5.80;99.90
1049;DHT22;513;51.444;7.196;2023-01-15T03:38:41;5.70;99.90
1049;DHT22;513;51.444;7.196;2023-01-15T03:41:13;5.70;99.90
1049;DHT22;513;51.444;7.196;2023-01-15T03:43:44;5.70;99.90
1049;DHT22;513;51.444;7.196;2023-01-15T03:46:19;5.70;99.90
1049;DHT22;513;51.444;7.196;2023-01-15T03:48:50;5.70;99.90
1049;DHT22;513;51.444;7.196;2023-01-15T03:51:21;5.60;99.90
1049;DHT22;513;51.444;7.196;2023-01-15T03:53:49;5.60;99.90
1049;DHT22;513;51.444;7.196;2023-01-15T03:56:21;5.70;99.90
1049;DHT22;513;51.444;7.196;2023-01-15T03:58:51;5.70;99.90
1049;DHT22;513;51.444;7.196;2023-01-15T04:01:19;5.60;99.90
1049;DHT22;513;51.444;7.196;2023-01-15T04:03:46;5.60;99.90
1049;DHT22;513;51.444;7.196;2023-01-15T04:06:14;5.60;99.90
1049;DHT22;513;51.444;7.196;2023-01-15T04:08:42;5.60;99.90
1049;DHT22;513;51.444;7.196;2023-01-15T04:11:09;5.60;99.90
1049;DHT22;513;51.444;7.196;2023-01-15T04:13:36;5.50;99.90
1049;DHT22;513;51.444;7.196;2023-01-15T04:16:02;5.50;99.90
1049;DHT22;513;51.444;7.196;2023-01-15T04:18:29;5.50;99.90
1049;DHT22;513;51.444;7.196;2023-01-15T04:20:56;5.50;99.90
1049;DHT22;513;51.444;7.196;2023-01-15T04:23:23;5.60;99.90
1049;DHT22;513;51.444;7.196;2023-01-15T04:25:51;5.60;99.90
1049;DHT22;513;51.444;7.196;2023-01-15T04:28:17;5.60;99.90
1049;DHT22;513;51.444;7.196;2023-01-15T04:30:44;5.60;99.90
1049;DHT22;513;51.444;7.196;2023-01-15T04:33:11;5.70;99.90
1049;DHT22;513;51.444;7.196;2023-01-15T04:35:38;5.70;99.90
1049;DHT22;513;51.444;7.196;2023-01-15T04:38:04;5.70;99.90
1049;DHT22;513;51.444;7.196;2023-01-15T04:40:31;5.70;99.90
1049;DHT22;513;51.444;7.196;2023-01-15T04:43:16;5.70;99.90
1049;DHT22;513;51.444;7.196;2023-01-15T04:46:00;5.70;99.90
1049;DHT22;513;51.444;7.196;2023-01-15T04:48:27;5.70;99.90
1049;DHT22;513;51.444;7.196;2023-01-15T04:50:53;5.70;99.90
1049;DHT22;513;51.444;7.196;2023-01-15T04:53:20;5.70;99.90
1049;DHT22;513;51.444;7.196;2023-01-15T04:55:46;5.70;99.90
1049;DHT22;513;51.444;7.196;2023-01-15T04:58:13;5.70;99.90
1049;DHT22;513;51.444;7.196;2023-01-15T05:00:41;5.80;99.90
1049;DHT22;513;51.444;7.196;2023-01-15T05:03:07;5.80;99.90
1049;DHT22;513;51.444;7.196;2023-01-15T05:05:34;5.80;99.90
1049;DHT22;513;51.444;7.196;2023-01-15T05:08:00;5.80;99.90
1049;DHT22;513;51.444;7.196;2023-01-15T05:10:27;5.80;99.90
1049;DHT22;513;51.444;7.196;2023-01-15T05:12:53;5.90;99.90
1049;DHT22;513;51.444;7.196;2023-01-15T05:15:20;5.80;99.90
1049;DHT22;513;51.444;7.196;2023-01-15T05:17:48;5.90;99.90
1049;DHT22;513;51.444;7.196;2023-01-15T05:20:14;5.80;99.90
1049;DHT22;513;51.444;7.196;2023-01-15T05:22:41;5.80;99.90
1049;DHT22;513;51.444;7.196;2023-01-15T05:25:08;5.80;99.90
1049;DHT22;513;51.444;7.196;2023-01-15T05:27:34;5.80;99.90
1049;DHT22;513;51.444;7.196;2023-01-15T05:30:01;5.80;99.90
1049;DHT22;513;51.444;7.196;2023-01-15T05:32:28;5.80;99.90
1049;DHT22;513;51.444;7.196;2023-01-15T05:34:56;5.80;99.90
1049;DHT22;513;51.444;7.196;2023-01-15T05:37:23;5.80;99.90
1049;DHT22;513;51.444;7.196;2023-01-15T05:39:49;5.80;99.90
1049;DHT22;513;51.444;7.196;2023-01-15T05:42:16;5.80;99.90
1049;DHT22;513;51.444;7.196;2023-01-15T05:44:43;5.80;99.90
1049;DHT22;513;51.444;7.196;2023-01-15T05:47:09;5.80;99.90
1049;DHT22;513;51.444;7.196;2023-01-15T05:49:36;5.80;99.90
1049;DHT22;513;51.444;7.196;2023-01-15T05:52:04;5.80;99.90
1049;DHT22;513;51.444;7.196;2023-01-15T05:54:31;5.80;99.90
1049;DHT22;513;51.444;7.196;2023-01-15T05:56:58;5.80;99.90
1049;DHT22;513;51.444;7.196;2023-01-15T05:59:26;5.90;99.90
1049;DHT22;513;51.444;7.196;2023-01-15T06:01:53;6.00;99.90
1049;DHT22;513;51.444;7.196;2023-01-15T06:04:20;6.00;99.90
1049;DHT22;513;51.444;7.196;2023-01-15T06:06:47;5.90;99.90
1049;DHT22;513;51.444;7.196;2023-01-15T06:09:15;6.00;99.90
1049;DHT22;513;51.444;7.196;2023-01-15T06:11:42;6.00;99.90
1049;DHT22;513;51.444;7.196;2023-01-15T06:14:09;6.10;99.90
1049;DHT22;513;51.444;7.196;2023-01-15T06:16:35;6.10;99.90
1049;DHT22;513;51.444;7.196;2023-01-15T06:19:02;6.10;99.90
1049;DHT22;513;51.444;7.196;2023-01-15T06:21:29;6.10;99.90
1049;DHT22;513;51.444;7.196;2023-01-15T06:23:56;6.10;99.90
1049;DHT22;513;51.444;7.196;2023-01-15T06:26:24;6.10;99.90
1049;DHT22;513;51.444;7.196;2023-01-15T06:28:51;6.10;99.90
1049;DHT22;513;51.444;7.196;2023-01-15T06:31:18;6.10;99.90
1049;DHT22;513;51.444;7.196;2023-01-15T06:33:45;6.20;99.90
1049;DHT22;513;51.444;7.196;2023-01-15T06:36:13;6.20;99.90
1049;DHT22;513;51.444;7.196;2023-01-15T06:38:40;6.20;99.90
1049;DHT22;513;51.444;7.196;2023-01-15T06:41:09;6.20;99.90
1049;DHT22;513;51.444;7.196;2023-01-15T06:43:52;6.10;99.90
1049;DHT22;513;51.444;7.196;2023-01-15T06:46:42;6.10;99.90
1049;DHT22;513;51.444;7.196;2023-01-15T06:49:26;6.10;99.90
1049;DHT22;513;51.444;7.196;2023-01-15T06:51:52;6.10;99.90
1049;DHT22;513;51.444;7.196;2023-01-15T06:54:19;6.10;99.90
1049;DHT22;513;51.444;7.196;2023-01-15T06:56:45;6.10;99.90
1049;DHT22;513;51.444;7.196;2023-01-15T06:59:13;6.00;99.90
1049;DHT22;513;51.444;7.196;2023-01-15T07:01:40;6.10;99.90
1049;DHT22;513;51.444;7.196;2023-01-15T07:04:06;6.10;99.90
1049;DHT22;513;51.444;7.196;2023-01-15T07:06:33;6.10;99.90
1049;DHT22;513;51.444;7.196;2023-01-15T07:08:59;6.10;99.90
1049;DHT22;513;51.444;7.196;2023-01-15T07:11:26;6.10;99.90
1049;DHT22;513;51.444;7.196;2023-01-15T07:13:52;6.00;99.90
1049;DHT22;513;51.444;7.196;2023-01-15T07:16:31;6.00;99.90
1049;DHT22;513;51.444;7.196;2023-01-15T07:18:58;6.10;99.90
1049;DHT22;513;51.444;7.196;2023-01-15T07:21:25;6.10;99.90
1049;DHT22;513;51.444;7.196;2023-01-15T07:23:52;6.10;99.90
1049;DHT22;513;51.444;7.196;2023-01-15T07:26:18;6.10;99.90
1049;DHT22;513;51.444;7.196;2023-01-15T07:28:45;6.00;99.90
1049;DHT22;513;51.444;7.196;2023-01-15T07:31:11;6.00;99.90
1049;DHT22;513;51.444;7.196;2023-01-15T07:33:40;6.00;99.90
1049;DHT22;513;51.444;7.196;2023-01-15T07:36:06;6.00;99.90
1049;DHT22;513;51.444;7.196;2023-01-15T07:38:33;6.00;99.90
1049;DHT22;513;51.444;7.196;2023-01-15T07:40:59;6.00;99.90
1049;DHT22;513;51.444;7.196;2023-01-15T07:43:43;5.90;99.90
1049;DHT22;513;51.444;7.196;2023-01-15T07:46:28;5.90;99.90
1049;DHT22;513;51.444;7.196;2023-01-15T07:49:13;5.90;99.90
1049;DHT22;513;51.444;7.196;2023-01-15T07:51:57;5.90;99.90
1049;DHT22;513;51.444;7.196;2023-01-15T07:54:24;5.80;99.90
1049;DHT22;513;51.444;7.196;2023-01-15T07:56:51;5.90;99.90
1049;DHT22;513;51.444;7.196;2023-01-15T07:59:18;5.80;99.90
1049;DHT22;513;51.444;7.196;2023-01-15T08:01:45;5.90;99.90
1049;DHT22;513;51.444;7.196;2023-01-15T08:04:12;5.90;99.90
1049;DHT22;513;51.444;7.196;2023-01-15T08:06:39;5.90;99.90
1049;DHT22;513;51.444;7.196;2023-01-15T08:09:06;5.90;99.90
1049;DHT22;513;51.444;7.196;2023-01-15T08:11:32;5.90;99.90
1049;DHT22;513;51.444;7.196;2023-01-15T08:14:17;6.00;99.90
1049;DHT22;513;51.444;7.196;2023-01-15T08:17:00;6.00;99.90
1049;DHT22;513;51.444;7.196;2023-01-15T08:19:27;6.00;99.90
1049;DHT22;513;51.444;7.196;2023-01-15T08:21:55;6.00;99.90
1049;DHT22;513;51.444;7.196;2023-01-15T08:24:22;5.90;99.90
1049;DHT22;513;51.444;7.196;2023-01-15T08:26:49;6.00;99.90
1049;DHT22;513;51.444;7.196;2023-01-15T08:29:15;6.00;99.90
1049;DHT22;513;51.444;7.196;2023-01-15T08:31:42;6.00;99.90
1049;DHT22;513;51.444;7.196;2023-01-15T08:34:08;6.00;99.90
1049;DHT22;513;51.444;7.196;2023-01-15T08:36:35;6.00;99.90
1049;DHT22;513;51.444;7.196;2023-01-15T08:39:03;6.10;99.90
1049;DHT22;513;51.444;7.196;2023-01-15T08:41:30;6.10;93.90
1049;DHT22;513;51.444;7.196;2023-01-15T08:43:56;6.00;91.10
1049;DHT22;513;51.444;7.196;2023-01-15T08:46:24;6.00;98.60
1049;DHT22;513;51.444;7.196;2023-01-15T08:48:50;6.00;99.90
1049;DHT22;513;51.444;7.196;2023-01-15T08:51:17;6.00;99.90
1049;DHT22;513;51.444;7.196;2023-01-15T08:53:44;6.00;99.90
1049;DHT22;513;51.444;7.196;2023-01-15T08:56:12;6.00;93.50
1049;DHT22;513;51.444;7.196;2023-01-15T08:58:39;6.00;94.00
1049;DHT22;513;51.444;7.196;2023-01-15T09:01:06;5.90;67.40
1049;DHT22;513;51.444;7.196;2023-01-15T09:03:33;5.90;74.20
1049;DHT22;513;51.444;7.196;2023-01-15T09:06:00;5.90;71.30
1049;DHT22;513;51.444;7.196;2023-01-15T09:08:27;5.90;60.20
1049;DHT22;513;51.444;7.196;2023-01-15T09:10:56;5.90;60.70
1049;DHT22;513;51.444;7.196;2023-01-15T09:13:35;5.90;58.00
1049;DHT22;513;51.444;7.196;2023-01-15T09:16:03;5.90;59.80
1049;DHT22;513;51.444;7.196;2023-01-15T09:18:29;5.80;58.90
1049;DHT22;513;51.444;7.196;2023-01-15T09:20:56;5.80;58.30
1049;DHT22;513;51.444;7.196;2023-01-15T09:23:23;5.70;50.60
1049;DHT22;513;51.444;7.196;2023-01-15T09:25:50;5.70;38.60
1049;DHT22;513;51.444;7.196;2023-01-15T09:28:17;5.60;38.70
1049;DHT22;513;51.444;7.196;2023-01-15T09:30:45;5.60;40.60
1049;DHT22;513;51.444;7.196;2023-01-15T09:33:11;5.50;36.70
1049;DHT22;513;51.444;7.196;2023-01-15T09:35:38;5.50;31.50
1049;DHT22;513;51.444;7.196;2023-01-15T09:38:05;5.50;29.90
1049;DHT22;513;51.444;7.196;2023-01-15T09:40:45;5.50;29.00
1049;DHT22;513;51.444;7.196;2023-01-15T09:43:16;5.70;23.80
1049;DHT22;513;51.444;7.196;2023-01-15T09:45:48;5.80;30.00
1049;DHT22;513;51.444;7.196;2023-01-15T09:48:18;6.00;37.90
1049;DHT22;513;51.444;7.196;2023-01-15T09:50:48;6.10;40.20
1049;DHT22;513;51.444;7.196;2023-01-15T09:53:22;6.20;26.90
1049;DHT22;513;51.444;7.196;2023-01-15T09:55:50;6.20;19.20
1049;DHT22;513;51.444;7.196;2023-01-15T09:58:20;6.10;23.40
1049;DHT22;513;51.444;7.196;2023-01-15T10:00:49;6.00;32.10
1049;DHT22;513;51.444;7.196;2023-01-15T10:03:20;6.00;27.50
1049;DHT22;513;51.444;7.196;2023-01-15T10:05:49;6.00;32.40
1049;DHT22;513;51.444;7.196;2023-01-15T10:08:20;6.10;36.10
1049;DHT22;513;51.444;7.196;2023-01-15T10:10:49;6.10;44.00
1049;DHT22;513;51.444;7.196;2023-01-15T10:13:18;6.20;50.50
1049;DHT22;513;51.444;7.196;2023-01-15T10:15:48;6.30;33.40
1049;DHT22;513;51.444;7.196;2023-01-15T10:18:15;6.40;37.60
1049;DHT22;513;51.444;7.196;2023-01-15T10:20:50;6.50;13.80
1049;DHT22;513;51.444;7.196;2023-01-15T10:23:32;6.20;17.00
1049;DHT22;513;51.444;7.196;2023-01-15T10:26:01;6.20;9.60
1049;DHT22;513;51.444;7.196;2023-01-15T10:28:28;6.20;1.60
1049;DHT22;513;51.444;7.196;2023-01-15T10:30:58;6.50;7.60
1049;DHT22;513;51.444;7.196;2023-01-15T10:33:39;6.30;1.00
1049;DHT22;513;51.444;7.196;2023-01-15T10:36:12;6.30;1.00
1049;DHT22;513;51.444;7.196;2023-01-15T10:38:43;6.40;1.00
1049;DHT22;513;51.444;7.196;2023-01-15T10:43:58;6.40;1.00
1049;DHT22;513;51.444;7.196;2023-01-15T10:46:28;6.40;1.00
1049;DHT22;513;51.444;7.196;2023-01-15T10:48:58;6.50;1.00
1049;DHT22;513;51.444;7.196;2023-01-15T10:51:27;6.50;1.00
1049;DHT22;513;51.444;7.196;2023-01-15T10:53:56;6.60;1.00
1049;DHT22;513;51.444;7.196;2023-01-15T10:56:31;6.70;1.00
1049;DHT22;513;51.444;7.196;2023-01-15T10:59:01;6.80;1.00
1049;DHT22;513;51.444;7.196;2023-01-15T11:01:34;6.80;1.00
1049;DHT22;513;51.444;7.196;2023-01-15T11:04:00;7.00;1.00
1049;DHT22;513;51.444;7.196;2023-01-15T11:06:28;7.00;1.00
1049;DHT22;513;51.444;7.196;2023-01-15T11:08:56;6.90;1.00
1049;DHT22;513;51.444;7.196;2023-01-15T11:11:24;6.80;1.00
1049;DHT22;513;51.444;7.196;2023-01-15T11:14:19;6.80;1.00
1049;DHT22;513;51.444;7.196;2023-01-15T11:17:03;6.90;1.00
1049;DHT22;513;51.444;7.196;2023-01-15T11:19:52;7.00;1.00
1049;DHT22;513;51.444;7.196;2023-01-15T11:22:19;6.90;1.00
1049;DHT22;513;51.444;7.196;2023-01-15T11:24:47;6.90;1.00
1049;DHT22;513;51.444;7.196;2023-01-15T11:27:15;6.90;1.00
1049;DHT22;513;51.444;7.196;2023-01-15T11:29:44;6.80;1.00
1049;DHT22;513;51.444;7.196;2023-01-15T11:32:24;6.80;1.00
1049;DHT22;513;51.444;7.196;2023-01-15T11:34:52;6.80;1.00
1049;DHT22;513;51.444;7.196;2023-01-15T11:37:19;6.80;1.00
1049;DHT22;513;51.444;7.196;2023-01-15T11:39:50;6.70;1.00
1049;DHT22;513;51.444;7.196;2023-01-15T11:42:17;6.70;1.00
1049;DHT22;513;51.444;7.196;2023-01-15T11:45:11;6.60;1.00
1049;DHT22;513;51.444;7.196;2023-01-15T11:47:56;6.60;1.00
1049;DHT22;513;51.444;7.196;2023-01-15T11:50:46;6.70;1.00
1049;DHT22;513;51.444;7.196;2023-01-15T11:53:15;6.80;1.00
1049;DHT22;513;51.444;7.196;2023-01-15T11:55:49;6.80;1.00
1049;DHT22;513;51.444;7.196;2023-01-15T11:58:15;6.70;1.00
1049;DHT22;513;51.444;7.196;2023-01-15T12:00:43;6.70;1.00
1049;DHT22;513;51.444;7.196;2023-01-15T12:03:15;6.70;1.00
1049;DHT22;513;51.444;7.196;2023-01-15T12:05:44;6.70;1.00
1049;DHT22;513;51.444;7.196;2023-01-15T12:08:14;6.70;1.00
1049;DHT22;513;51.444;7.196;2023-01-15T12:10:43;6.70;1.00
1049;DHT22;513;51.444;7.196;2023-01-15T12:13:31;6.70;1.00
1049;DHT22;513;51.444;7.196;2023-01-15T12:16:02;6.70;1.00
1049;DHT22;513;51.444;7.196;2023-01-15T12:18:40;6.70;1.00
1049;DHT22;513;51.444;7.196;2023-01-15T12:21:15;6.70;1.00
1049;DHT22;513;51.444;7.196;2023-01-15T12:23:54;6.70;1.00
1049;DHT22;513;51.444;7.196;2023-01-15T12:26:24;6.70;1.00
1049;DHT22;513;51.444;7.196;2023-01-15T12:28:53;6.60;1.00
1049;DHT22;513;51.444;7.196;2023-01-15T12:31:24;6.70;1.00
1049;DHT22;513;51.444;7.196;2023-01-15T12:33:53;6.70;1.00
1049;DHT22;513;51.444;7.196;2023-01-15T12:36:21;6.60;1.00
1049;DHT22;513;51.444;7.196;2023-01-15T12:38:52;6.60;1.00
1049;DHT22;513;51.444;7.196;2023-01-15T12:41:22;6.60;1.00
1049;DHT22;513;51.444;7.196;2023-01-15T12:43:50;6.50;1.00
1049;DHT22;513;51.444;7.196;2023-01-15T12:46:38;6.50;1.00
1049;DHT22;513;51.444;7.196;2023-01-15T12:49:08;6.50;1.00
1049;DHT22;513;51.444;7.196;2023-01-15T12:51:40;6.60;1.00
1049;DHT22;513;51.444;7.196;2023-01-15T12:54:11;6.70;1.00
1049;DHT22;513;51.444;7.196;2023-01-15T12:56:43;6.70;1.00
1049;DHT22;513;51.444;7.196;2023-01-15T12:59:12;6.80;1.00
1049;DHT22;513;51.444;7.196;2023-01-15T13:01:44;6.90;1.00
1049;DHT22;513;51.444;7.196;2023-01-15T13:04:16;7.00;1.00
1049;DHT22;513;51.444;7.196;2023-01-15T13:06:45;7.00;1.00
1049;DHT22;513;51.444;7.196;2023-01-15T13:09:19;7.10;1.00
1049;DHT22;513;51.444;7.196;2023-01-15T13:11:48;7.20;1.00
1049;DHT22;513;51.444;7.196;2023-01-15T13:14:16;7.20;99.90
1049;DHT22;513;51.444;7.196;2023-01-15T13:16:51;7.00;1.00
1049;DHT22;513;51.444;7.196;2023-01-15T13:19:27;7.00;1.00
1049;DHT22;513;51.444;7.196;2023-01-15T13:22:00;7.00;1.00
1049;DHT22;513;51.444;7.196;2023-01-15T13:24:47;6.90;1.00
1049;DHT22;513;51.444;7.196;2023-01-15T13:27:30;6.90;1.00
1049;DHT22;513;51.444;7.196;2023-01-15T13:30:08;6.80;1.00
1049;DHT22;513;51.444;7.196;2023-01-15T13:32:44;6.70;1.00
1049;DHT22;513;51.444;7.196;2023-01-15T13:35:21;6.70;1.00
1049;DHT22;513;51.444;7.196;2023-01-15T13:37:52;6.60;1.00
1049;DHT22;513;51.444;7.196;2023-01-15T13:40:23;6.60;1.00
1049;DHT22;513;51.444;7.196;2023-01-15T13:42:52;6.50;1.00
1049;DHT22;513;51.444;7.196;2023-01-15T13:45:30;6.60;1.00
1049;DHT22;513;51.444;7.196;2023-01-15T13:48:05;6.50;1.00
1049;DHT22;513;51.444;7.196;2023-01-15T13:50:35;6.50;1.00
1049;DHT22;513;51.444;7.196;2023-01-15T13:53:06;6.50;1.00
1049;DHT22;513;51.444;7.196;2023-01-15T13:55:34;6.50;1.00
1049;DHT22;513;51.444;7.196;2023-01-15T13:58:14;6.60;1.00
1049;DHT22;513;51.444;7.196;2023-01-15T14:00:41;6.60;1.00
1049;DHT22;513;51.444;7.196;2023-01-15T14:03:25;6.50;1.00
1049;DHT22;513;51.444;7.196;2023-01-15T14:05:56;6.60;1.00
1049;DHT22;513;51.444;7.196;2023-01-15T14:08:26;6.50;1.00
1049;DHT22;513;51.444;7.196;2023-01-15T14:10:54;6.50;1.00
1049;DHT22;513;51.444;7.196;2023-01-15T14:16:19;6.50;1.00
1049;DHT22;513;51.444;7.196;2023-01-15T14:18:58;6.60;1.00
1049;DHT22;513;51.444;7.196;2023-01-15T14:21:30;6.60;1.00
1049;DHT22;513;51.444;7.196;2023-01-15T14:24:12;6.60;1.00
1049;DHT22;513;51.444;7.196;2023-01-15T14:26:46;6.50;1.00
1049;DHT22;513;51.444;7.196;2023-01-15T14:29:26;6.60;1.00
1049;DHT22;513;51.444;7.196;2023-01-15T14:31:59;6.50;1.00
1049;DHT22;513;51.444;7.196;2023-01-15T14:34:27;6.50;1.00
1049;DHT22;513;51.444;7.196;2023-01-15T14:36:55;6.50;1.00
1049;DHT22;513;51.444;7.196;2023-01-15T14:42:10;6.60;1.00
1049;DHT22;513;51.444;7.196;2023-01-15T14:44:57;6.60;1.00
1049;DHT22;513;51.444;7.196;2023-01-15T14:47:26;6.50;1.00
1049;DHT22;513;51.444;7.196;2023-01-15T14:50:03;6.50;1.00
1049;DHT22;513;51.444;7.196;2023-01-15T14:52:46;6.40;1.00
1049;DHT22;513;51.444;7.196;2023-01-15T14:55:14;6.40;1.00
1049;DHT22;513;51.444;7.196;2023-01-15T14:57:41;6.50;1.00
1049;DHT22;513;51.444;7.196;2023-01-15T15:00:11;6.50;1.00
1049;DHT22;513;51.444;7.196;2023-01-15T15:02:41;6.40;1.00
1049;DHT22;513;51.444;7.196;2023-01-15T15:05:11;6.50;1.00
1049;DHT22;513;51.444;7.196;2023-01-15T15:07:40;6.50;1.00
1049;DHT22;513;51.444;7.196;2023-01-15T15:10:11;6.50;1.00
1049;DHT22;513;51.444;7.196;2023-01-15T15:12:44;6.60;99.90
1049;DHT22;513;51.444;7.196;2023-01-15T15:15:12;6.60;1.00
1049;DHT22;513;51.444;7.196;2023-01-15T15:17:43;6.50;1.00
1049;DHT22;513;51.444;7.196;2023-01-15T15:20:20;6.50;1.00
1049;DHT22;513;51.444;7.196;2023-01-15T15:22:48;6.60;1.00
1049;DHT22;513;51.444;7.196;2023-01-15T15:25:20;6.50;1.00
1049;DHT22;513;51.444;7.196;2023-01-15T15:27:47;6.50;1.00
1049;DHT22;513;51.444;7.196;2023-01-15T15:30:14;6.50;1.00
1049;DHT22;513;51.444;7.196;2023-01-15T15:32:41;6.60;1.00
1049;DHT22;513;51.444;7.196;2023-01-15T15:35:16;6.50;1.00
1049;DHT22;513;51.444;7.196;2023-01-15T15:37:47;6.50;1.00
1049;DHT22;513;51.444;7.196;2023-01-15T15:40:14;6.50;1.00
1049;DHT22;513;51.444;7.196;2023-01-15T15:42:42;6.40;1.00
1049;DHT22;513;51.444;7.196;2023-01-15T15:45:30;6.40;1.00
1049;DHT22;513;51.444;7.196;2023-01-15T15:48:16;6.40;1.00
1049;DHT22;513;51.444;7.196;2023-01-15T15:51:01;6.50;1.00
1049;DHT22;513;51.444;7.196;2023-01-15T15:53:30;6.40;1.00
1049;DHT22;513;51.444;7.196;2023-01-15T15:55:57;6.40;1.00
1049;DHT22;513;51.444;7.196;2023-01-15T15:58:25;6.50;1.00
1049;DHT22;513;51.444;7.196;2023-01-15T16:00:53;6.50;1.00
1049;DHT22;513;51.444;7.196;2023-01-15T16:03:22;6.50;1.00
1049;DHT22;513;51.444;7.196;2023-01-15T16:05:59;6.50;1.00
1049;DHT22;513;51.444;7.196;2023-01-15T16:08:26;6.40;1.00
1049;DHT22;513;51.444;7.196;2023-01-15T16:10:54;6.50;1.00
1049;DHT22;513;51.444;7.196;2023-01-15T16:13:22;6.50;1.00
1049;DHT22;513;51.444;7.196;2023-01-15T16:15:50;6.40;1.00
1049;DHT22;513;51.444;7.196;2023-01-15T16:18:21;6.40;1.00
1049;DHT22;513;51.444;7.196;2023-01-15T16:20:49;6.40;1.00
1049;DHT22;513;51.444;7.196;2023-01-15T16:23:18;6.40;1.00
1049;DHT22;513;51.444;7.196;2023-01-15T16:25:53;6.40;1.00
1049;DHT22;513;51.444;7.196;2023-01-15T16:28:22;6.40;1.00
1049;DHT22;513;51.444;7.196;2023-01-15T16:30:54;6.40;1.00
1049;DHT22;513;51.444;7.196;2023-01-15T16:33:20;6.40;1.00
1049;DHT22;513;51.444;7.196;2023-01-15T16:35:47;6.30;1.00
1049;DHT22;513;51.444;7.196;2023-01-15T16:38:20;6.40;1.00
1049;DHT22;513;51.444;7.196;2023-01-15T16:40:47;6.40;1.00
1049;DHT22;513;51.444;7.196;2023-01-15T16:43:14;6.30;1.00
1049;DHT22;513;51.444;7.196;2023-01-15T16:45:55;6.40;1.00
1049;DHT22;513;51.444;7.196;2023-01-15T16:48:26;6.40;1.00
1049;DHT22;513;51.444;7.196;2023-01-15T16:50:54;6.40;1.00
1049;DHT22;513;51.444;7.196;2023-01-15T16:53:36;6.40;1.00
1049;DHT22;513;51.444;7.196;2023-01-15T16:56:03;6.40;1.00
1049;DHT22;513;51.444;7.196;2023-01-15T16:58:31;6.30;1.00
1049;DHT22;513;51.444;7.196;2023-01-15T17:01:00;6.30;1.00
1049;DHT22;513;51.444;7.196;2023-01-15T17:03:27;6.30;1.00
1049;DHT22;513;51.444;7.196;2023-01-15T17:05:55;6.30;1.00
1049;DHT22;513;51.444;7.196;2023-01-15T17:08:26;6.30;1.00
1049;DHT22;513;51.444;7.196;2023-01-15T17:10:56;6.30;1.00